Time;durP1;ratioP1;P1;durP2;ratioP2;P2;SDS_P1;SDS_P2;PMS_P1;PMS_P2;Temp;Humidity;BMP_temperature;BMP_pressure;BME280_temperature;BME280_humidity;BME280_pressure;Samples;Min_cycle;Max_cycle;Signal;HPM_P1;HPM_P2
2022/06/23 00:02:26;;;;;;;1.70;1.60;;;19.40;99.60;;;;;;5088630;28;20220;-48
2022/06/23 00:04:56;;;;;;;1.83;1.63;;;19.40;99.60;;;;;;5063519;28;20281;-52
2022/06/23 00:07:27;;;;;;;1.98;1.77;;;19.40;99.60;;;;;;5083576;28;20197;-52
2022/06/23 00:09:56;;;;;;;2.03;1.92;;;19.30;99.60;;;;;;5088763;28;20196;-48
2022/06/23 00:12:28;;;;;;;2.20;2.10;;;19.30;99.70;;;;;;5062610;28;20200;-51
2022/06/23 00:15:12;;;;;;;2.25;2.00;;;19.30;99.80;;;;;;5081994;28;20773;-53
2022/06/23 00:17:42;;;;;;;2.17;1.95;;;19.30;99.80;;;;;;5078905;28;20541;-52
2022/06/23 00:20:16;;;;;;;1.92;1.83;;;19.20;99.90;;;;;;5089265;28;20232;-50
2022/06/23 00:22:47;;;;;;;1.75;1.65;;;19.20;99.90;;;;;;5082379;28;20294;-54
2022/06/23 00:25:30;;;;;;;1.90;1.80;;;19.20;99.90;;;;;;5073809;28;20200;-57
2022/06/23 00:27:58;;;;;;;1.80;1.70;;;19.20;99.90;;;;;;5084570;28;20220;-59
2022/06/23 00:30:28;;;;;;;1.65;1.55;;;19.30;99.90;;;;;;5074941;28;20695;-57
2022/06/23 00:32:55;;;;;;;2.05;1.95;;;19.30;99.90;;;;;;5074014;28;20196;-57
2022/06/23 00:35:22;;;;;;;2.00;1.90;;;19.20;99.90;;;;;;5072211;28;20193;-57
2022/06/23 00:37:52;;;;;;;1.85;1.75;;;19.20;99.90;;;;;;5056344;28;20595;-56
2022/06/23 00:40:23;;;;;;;1.88;1.77;;;19.20;99.90;;;;;;5084627;28;20316;-57
2022/06/23 00:42:55;;;;;;;1.65;1.52;;;19.20;99.90;;;;;;5081649;28;20258;-58
2022/06/23 00:45:31;;;;;;;1.88;1.77;;;19.20;99.90;;;;;;5075393;28;20205;-57
2022/06/23 00:48:06;;;;;;;1.80;1.70;;;19.20;99.90;;;;;;5077165;28;20201;-58
2022/06/23 00:50:38;;;;;;;1.60;1.50;;;19.20;99.90;;;;;;5075759;28;20204;-58
2022/06/23 00:53:16;;;;;;;1.20;1.20;;;19.20;99.90;;;;;;5077716;28;20193;-58
2022/06/23 00:55:52;;;;;;;1.35;1.35;;;19.10;99.90;;;;;;5077515;28;20196;-58
2022/06/23 00:58:37;;;;;;;1.58;1.48;;;19.10;99.90;;;;;;5078201;28;20196;-57
2022/06/23 01:01:11;;;;;;;1.45;1.40;;;19.20;99.90;;;;;;5074896;28;20189;-57
2022/06/23 01:03:42;;;;;;;1.65;1.55;;;19.10;99.90;;;;;;5081189;28;20344;-57
2022/06/23 01:06:17;;;;;;;2.05;1.77;;;19.10;99.90;;;;;;5081199;28;20252;-57
2022/06/23 01:08:50;;;;;;;1.50;1.40;;;19.10;99.90;;;;;;5076486;28;20295;-58
2022/06/23 01:11:26;;;;;;;1.83;1.73;;;19.10;99.90;;;;;;5080972;28;20200;-58
2022/06/23 01:14:06;;;;;;;1.70;1.60;;;19.10;99.90;;;;;;5085419;28;20656;-57
2022/06/23 01:16:41;;;;;;;1.90;1.80;;;19.10;99.90;;;;;;5075568;28;20549;-55
2022/06/23 01:19:24;;;;;;;1.85;1.75;;;19.00;99.90;;;;;;5077526;28;20235;-54
2022/06/23 01:21:57;;;;;;;1.58;1.48;;;19.00;99.90;;;;;;5076641;28;20197;-55
2022/06/23 01:24:32;;;;;;;1.77;1.67;;;19.00;99.90;;;;;;5081733;28;20209;-57
2022/06/23 01:27:25;;;;;;;1.35;1.35;;;19.00;99.90;;;;;;5084777;28;20200;-57
2022/06/23 01:30:00;;;;;;;1.10;1.10;;;19.00;99.90;;;;;;5079554;28;20196;-58
2022/06/23 01:32:31;;;;;;;1.30;1.30;;;19.00;99.90;;;;;;5072098;28;20231;-58
2022/06/23 01:35:05;;;;;;;1.58;1.50;;;19.00;99.90;;;;;;5076357;28;20192;-58
2022/06/23 01:37:39;;;;;;;1.38;1.27;;;19.00;99.90;;;;;;5059935;28;20576;-57
2022/06/23 01:40:13;;;;;;;1.63;1.52;;;19.00;99.90;;;;;;5074623;28;20231;-58
2022/06/23 01:42:46;;;;;;;1.70;1.60;;;18.90;99.90;;;;;;5069202;28;20219;-58
2022/06/23 01:45:23;;;;;;;1.40;1.30;;;18.90;99.90;;;;;;5077763;28;20569;-58
2022/06/23 01:47:53;;;;;;;1.40;1.40;;;18.90;99.90;;;;;;5075700;28;20196;-56
2022/06/23 01:50:42;;;;;;;1.52;1.40;;;18.90;99.90;;;;;;5066355;28;20201;-56
2022/06/23 01:53:22;;;;;;;1.50;1.40;;;18.80;99.90;;;;;;5063886;28;20200;-60
2022/06/23 01:56:10;;;;;;;1.80;1.70;;;18.80;99.90;;;;;;5076797;28;20290;-59
2022/06/23 01:58:49;;;;;;;1.60;1.50;;;18.80;99.90;;;;;;5077423;28;20322;-59
2022/06/23 02:01:25;;;;;;;1.70;1.60;;;18.80;99.90;;;;;;5071837;28;20201;-60
2022/06/23 02:03:59;;;;;;;1.70;1.60;;;18.80;99.90;;;;;;5079334;28;20606;-59
2022/06/23 02:06:30;;;;;;;1.65;1.55;;;18.80;99.90;;;;;;5064520;28;20192;-60
2022/06/23 02:09:13;;;;;;;1.60;1.50;;;18.80;99.90;;;;;;5082043;28;20508;-60
2022/06/23 02:11:45;;;;;;;2.65;2.05;;;18.70;99.90;;;;;;5076841;28;20193;-60
2022/06/23 02:14:22;;;;;;;2.00;1.90;;;18.70;99.90;;;;;;5077697;28;20189;-60
2022/06/23 02:16:55;;;;;;;1.73;1.63;;;18.70;99.90;;;;;;5072263;28;20197;-60
2022/06/23 02:19:36;;;;;;;1.60;1.50;;;18.70;99.90;;;;;;5075453;28;20228;-57
2022/06/23 02:22:11;;;;;;;1.80;1.70;;;18.70;99.90;;;;;;5076714;28;20188;-58
2022/06/23 02:24:45;;;;;;;1.80;1.70;;;18.70;99.90;;;;;;5075942;28;20684;-58
2022/06/23 02:27:19;;;;;;;1.73;1.63;;;18.70;99.90;;;;;;5076179;28;20294;-58
2022/06/23 02:29:53;;;;;;;1.70;1.60;;;18.70;99.90;;;;;;5071890;28;20188;-58
2022/06/23 02:32:31;;;;;;;1.60;1.50;;;18.70;99.90;;;;;;5070818;28;20660;-58
2022/06/23 02:35:03;;;;;;;1.73;1.63;;;18.70;99.90;;;;;;5073934;28;20256;-58
2022/06/23 02:37:52;;;;;;;1.55;1.40;;;18.70;99.90;;;;;;5073134;28;20201;-58
2022/06/23 02:40:25;;;;;;;1.40;1.40;;;18.70;99.90;;;;;;5074909;28;20220;-58
2022/06/23 02:42:57;;;;;;;1.65;1.40;;;18.60;99.90;;;;;;5072396;28;20197;-59
2022/06/23 02:45:49;;;;;;;1.88;1.77;;;18.60;99.90;;;;;;5072356;28;20216;-60
2022/06/23 02:48:43;;;;;;;1.70;1.60;;;18.70;99.90;;;;;;5078434;28;20197;-58
2022/06/23 02:51:27;;;;;;;2.08;1.50;;;18.70;99.90;;;;;;5077426;28;20590;-58
2022/06/23 02:54:15;;;;;;;1.60;1.50;;;18.70;99.90;;;;;;5057687;28;20205;-58
2022/06/23 02:57:00;;;;;;;2.30;2.10;;;18.70;99.90;;;;;;5077647;28;20547;-57
2022/06/23 02:59:36;;;;;;;5.25;2.78;;;18.70;99.90;;;;;;5074726;28;20188;-59
2022/06/23 03:02:10;;;;;;;6.75;3.13;;;18.70;99.90;;;;;;5073521;28;20249;-58
2022/06/23 03:04:45;;;;;;;3.60;3.30;;;18.70;99.90;;;;;;5076496;28;20204;-59
2022/06/23 03:07:20;;;;;;;4.18;3.38;;;18.60;99.70;;;;;;5074697;28;20196;-58
2022/06/23 03:09:51;;;;;;;3.65;3.30;;;18.60;99.70;;;;;;5079266;28;20184;-58
2022/06/23 03:12:23;;;;;;;2.70;2.50;;;18.60;99.70;;;;;;5073514;28;20190;-58
2022/06/23 03:14:57;;;;;;;2.50;2.30;;;18.60;99.70;;;;;;5056704;28;20210;-59
2022/06/23 03:17:29;;;;;;;2.20;2.10;;;18.50;99.70;;;;;;5073242;28;20204;-59
2022/06/23 03:20:03;;;;;;;2.20;2.00;;;18.50;99.70;;;;;;5075088;28;20663;-59
2022/06/23 03:22:35;;;;;;;1.90;1.80;;;18.50;99.80;;;;;;5076641;28;20298;-59
2022/06/23 03:25:08;;;;;;;2.13;1.98;;;18.50;99.80;;;;;;5079716;28;20599;-59
2022/06/23 03:27:47;;;;;;;2.75;2.55;;;18.50;99.90;;;;;;5080164;28;20219;-58
2022/06/23 03:30:21;;;;;;;2.40;2.20;;;18.50;99.80;;;;;;5077487;28;20293;-58
2022/06/23 03:32:53;;;;;;;1.80;1.70;;;18.60;99.80;;;;;;5075494;28;20189;-58
2022/06/23 03:35:27;;;;;;;2.00;1.90;;;18.60;99.80;;;;;;5085932;28;20283;-58
2022/06/23 03:38:04;;;;;;;1.98;1.88;;;18.60;99.80;;;;;;5073897;28;20348;-58
2022/06/23 03:43:37;;;;;;;1.85;1.73;;;18.60;99.70;;;;;;5043241;28;20763;-57
2022/06/23 03:46:11;;;;;;;1.75;1.65;;;18.60;99.60;;;;;;5074379;28;20197;-58
2022/06/23 03:48:44;;;;;;;1.60;1.50;;;18.60;99.70;;;;;;5081545;28;20192;-58
2022/06/23 03:51:19;;;;;;;1.55;1.35;;;18.60;99.70;;;;;;5076886;28;20208;-57
2022/06/23 03:53:51;;;;;;;1.60;1.50;;;18.70;99.70;;;;;;5060574;28;20261;-54
2022/06/23 03:56:21;;;;;;;1.63;1.50;;;18.70;99.70;;;;;;5079032;28;20286;-58
2022/06/23 03:58:53;;;;;;;1.60;1.50;;;18.70;99.60;;;;;;5076728;28;20197;-58
2022/06/23 04:01:25;;;;;;;1.90;1.80;;;18.80;99.60;;;;;;5071355;28;20250;-59
2022/06/23 04:03:58;;;;;;;1.80;1.55;;;18.80;99.60;;;;;;5076516;28;20209;-58
2022/06/23 04:06:39;;;;;;;1.15;1.15;;;18.80;99.60;;;;;;5079927;28;20192;-59
2022/06/23 04:09:14;;;;;;;1.30;1.30;;;18.80;99.60;;;;;;5059285;28;20327;-59
2022/06/23 04:11:58;;;;;;;1.95;1.77;;;18.80;99.60;;;;;;5071742;28;20212;-58
2022/06/23 04:14:45;;;;;;;1.83;1.67;;;18.90;99.60;;;;;;5072912;28;20194;-58
2022/06/23 04:17:18;;;;;;;2.00;1.80;;;18.90;99.50;;;;;;5072267;28;20728;-58
2022/06/23 04:19:47;;;;;;;2.42;1.98;;;18.90;99.40;;;;;;5055234;28;20613;-58
2022/06/23 04:22:23;;;;;;;2.25;2.05;;;19.00;99.50;;;;;;5056232;28;20209;-58
2022/06/23 04:24:55;;;;;;;1.50;1.40;;;19.00;99.40;;;;;;5067034;28;20320;-58
2022/06/23 04:27:27;;;;;;;1.77;1.67;;;19.00;99.40;;;;;;5055988;28;20209;-59
2022/06/23 04:29:58;;;;;;;1.48;1.38;;;19.00;99.40;;;;;;5060508;28;20197;-58
2022/06/23 04:32:29;;;;;;;1.45;1.35;;;19.00;99.50;;;;;;5054749;28;20200;-59
2022/06/23 04:35:00;;;;;;;1.35;1.20;;;19.10;99.50;;;;;;5053196;28;20270;-59
2022/06/23 04:37:39;;;;;;;1.17;1.17;;;19.10;99.50;;;;;;5060122;28;20202;-57
2022/06/23 04:40:17;;;;;;;1.35;1.25;;;19.10;99.60;;;;;;5063794;28;20198;-57
2022/06/23 04:42:48;;;;;;;1.20;1.10;;;19.20;99.60;;;;;;5061116;28;20193;-58
2022/06/23 04:45:42;;;;;;;1.58;1.20;;;19.20;99.60;;;;;;5065124;28;20209;-59
2022/06/23 04:48:17;;;;;;;1.15;1.05;;;19.30;99.70;;;;;;5054032;28;20213;-59
2022/06/23 04:50:49;;;;;;;1.13;1.10;;;19.30;99.80;;;;;;5064151;28;20197;-59
2022/06/23 04:53:25;;;;;;;3.33;1.33;;;19.30;99.90;;;;;;5063538;28;20193;-59
2022/06/23 04:56:04;;;;;;;1.30;1.20;;;19.30;99.90;;;;;;5064267;28;20250;-57
2022/06/23 04:58:35;;;;;;;1.10;1.10;;;19.40;99.90;;;;;;5066891;28;20190;-59
2022/06/23 05:01:02;;;;;;;1.85;1.27;;;19.40;99.90;;;;;;5059567;28;20607;-59
2022/06/23 05:03:34;;;;;;;1.05;1.05;;;19.50;99.90;;;;;;5059035;28;20205;-58
2022/06/23 05:06:10;;;;;;;1.13;1.13;;;19.50;99.90;;;;;;5068478;28;20193;-59
2022/06/23 05:08:42;;;;;;;1.38;1.25;;;19.50;99.90;;;;;;5065946;28;20227;-55
2022/06/23 05:11:16;;;;;;;1.10;1.10;;;19.60;99.90;;;;;;5051355;28;20235;-55
2022/06/23 05:13:49;;;;;;;1.10;1.10;;;19.60;99.90;;;;;;5066024;28;20698;-58
2022/06/23 05:16:20;;;;;;;1.40;1.40;;;19.60;99.90;;;;;;5052532;28;20190;-58
2022/06/23 05:18:51;;;;;;;1.20;1.20;;;19.60;99.90;;;;;;5073356;28;20309;-59
2022/06/23 05:21:22;;;;;;;1.20;1.20;;;19.60;99.90;;;;;;5076063;28;20200;-58
2022/06/23 05:23:59;;;;;;;1.02;1.02;;;19.70;99.90;;;;;;5082833;28;20204;-58
2022/06/23 05:26:32;;;;;;;1.40;1.40;;;19.70;99.80;;;;;;5081287;28;20192;-59
2022/06/23 05:29:02;;;;;;;1.52;1.42;;;19.80;99.80;;;;;;5085218;28;20198;-58
2022/06/23 05:31:35;;;;;;;1.35;1.30;;;19.80;99.80;;;;;;5079425;28;20193;-58
2022/06/23 05:34:07;;;;;;;1.52;1.42;;;19.80;99.80;;;;;;5088503;28;20184;-58
2022/06/23 05:36:38;;;;;;;1.50;1.38;;;19.80;99.70;;;;;;5088998;28;20633;-57
2022/06/23 05:39:17;;;;;;;1.42;1.35;;;19.80;99.70;;;;;;5085352;28;20252;-57
2022/06/23 05:41:47;;;;;;;1.27;1.27;;;19.80;99.60;;;;;;5082365;28;20705;-58
2022/06/23 05:44:20;;;;;;;1.27;1.25;;;19.90;99.60;;;;;;5078093;28;20204;-58
2022/06/23 05:46:49;;;;;;;2.60;1.42;;;19.90;99.50;;;;;;5082417;28;20688;-57
2022/06/23 05:49:20;;;;;;;1.42;1.30;;;19.90;99.50;;;;;;5078362;28;20196;-57
2022/06/23 05:51:53;;;;;;;1.98;1.85;;;19.90;99.40;;;;;;5076151;28;20196;-58
2022/06/23 05:54:28;;;;;;;1.80;1.70;;;19.90;99.30;;;;;;5090446;28;20762;-58
2022/06/23 05:57:02;;;;;;;1.50;1.40;;;19.90;99.30;;;;;;5073002;28;20629;-57
2022/06/23 05:59:32;;;;;;;2.05;1.77;;;19.90;99.40;;;;;;5076271;28;20199;-55
2022/06/23 06:02:06;;;;;;;1.45;1.40;;;19.90;99.40;;;;;;5062049;28;20226;-56
2022/06/23 06:04:38;;;;;;;2.30;1.40;;;20.00;99.40;;;;;;5075651;28;20204;-57
2022/06/23 06:07:06;;;;;;;1.30;1.30;;;20.00;99.40;;;;;;5052609;28;20579;-54
2022/06/23 06:09:40;;;;;;;1.00;1.00;;;20.10;99.50;;;;;;5053586;28;20204;-57
2022/06/23 06:12:13;;;;;;;2.05;1.40;;;20.10;99.50;;;;;;5068736;28;20288;-56
2022/06/23 06:14:43;;;;;;;1.45;1.35;;;20.10;99.50;;;;;;5075056;28;20568;-56
2022/06/23 06:17:18;;;;;;;2.17;1.42;;;20.10;99.40;;;;;;5088582;28;20192;-57
2022/06/23 06:19:46;;;;;;;1.15;1.15;;;20.20;99.40;;;;;;5068741;28;20224;-56
2022/06/23 06:22:27;;;;;;;1.40;1.30;;;20.20;99.40;;;;;;5082815;28;20652;-58
2022/06/23 06:24:58;;;;;;;1.10;1.10;;;20.20;99.30;;;;;;5078127;28;20300;-58
2022/06/23 06:27:27;;;;;;;1.00;1.00;;;20.20;99.30;;;;;;5082494;28;20192;-57
2022/06/23 06:29:54;;;;;;;1.10;1.10;;;20.20;99.20;;;;;;5080015;28;20275;-56
2022/06/23 06:32:33;;;;;;;1.92;1.75;;;20.30;99.20;;;;;;5070416;28;20212;-57
2022/06/23 06:35:13;;;;;;;1.50;1.40;;;20.30;99.10;;;;;;5070925;28;20224;-55
2022/06/23 06:37:44;;;;;;;2.63;1.40;;;20.40;99.10;;;;;;5074957;28;20584;-55
2022/06/23 06:40:13;;;;;;;1.33;1.23;;;20.40;99.10;;;;;;5069812;28;20197;-58
2022/06/23 06:42:45;;;;;;;1.10;1.10;;;20.50;99.10;;;;;;5078489;28;20705;-54
2022/06/23 06:45:15;;;;;;;2.28;1.90;;;20.50;99.10;;;;;;5078343;28;20208;-55
2022/06/23 06:47:44;;;;;;;2.17;1.80;;;20.50;99.00;;;;;;5065822;28;20207;-58
2022/06/23 06:50:28;;;;;;;1.80;1.60;;;20.60;98.90;;;;;;5082788;28;20565;-58
2022/06/23 06:52:57;;;;;;;1.70;1.60;;;20.60;98.80;;;;;;5071346;28;20197;-58
2022/06/23 06:55:30;;;;;;;1.67;1.58;;;20.60;98.80;;;;;;5080592;28;20197;-56
2022/06/23 06:58:03;;;;;;;1.50;1.40;;;20.60;98.70;;;;;;5074891;28;20192;-55
2022/06/23 07:00:37;;;;;;;1.33;1.23;;;20.70;98.70;;;;;;5079658;28;20526;-57
2022/06/23 07:03:06;;;;;;;3.67;1.50;;;20.70;98.70;;;;;;5084602;28;20192;-50
2022/06/23 07:05:39;;;;;;;1.50;1.50;;;20.80;98.50;;;;;;5076771;28;20308;-55
2022/06/23 07:08:11;;;;;;;1.30;1.20;;;20.70;98.40;;;;;;5079723;28;20200;-55
2022/06/23 07:10:45;;;;;;;1.17;1.13;;;20.80;98.40;;;;;;5081249;28;20193;-55
2022/06/23 07:13:19;;;;;;;2.20;1.52;;;20.80;98.30;;;;;;5087507;28;20196;-55
2022/06/23 07:15:52;;;;;;;1.65;1.50;;;20.90;98.30;;;;;;5082060;28;20190;-51
2022/06/23 07:18:25;;;;;;;1.30;1.20;;;20.90;98.20;;;;;;5087554;28;20192;-54
2022/06/23 07:21:03;;;;;;;1.20;1.15;;;21.00;98.10;;;;;;5086215;28;20185;-55
2022/06/23 07:23:35;;;;;;;1.40;1.30;;;21.10;98.00;;;;;;5088073;28;20668;-54
2022/06/23 07:26:17;;;;;;;1.30;1.20;;;21.10;97.90;;;;;;5084634;28;20555;-58
2022/06/23 07:28:50;;;;;;;1.20;1.10;;;21.10;97.80;;;;;;5090649;28;20204;-59
2022/06/23 07:31:23;;;;;;;1.48;1.38;;;21.20;97.70;;;;;;5075466;28;20250;-58
2022/06/23 07:33:56;;;;;;;2.35;1.30;;;21.20;97.60;;;;;;5081843;28;20279;-56
2022/06/23 07:36:30;;;;;;;1.10;1.10;;;21.30;97.50;;;;;;5082122;28;20541;-56
2022/06/23 07:39:03;;;;;;;1.20;1.10;;;21.30;97.40;;;;;;5080587;28;20682;-53
2022/06/23 07:41:39;;;;;;;1.52;1.40;;;21.40;97.30;;;;;;5083580;28;20188;-53
2022/06/23 07:44:12;;;;;;;2.05;1.75;;;21.40;97.20;;;;;;5090210;28;20192;-50
2022/06/23 07:46:40;;;;;;;1.80;1.50;;;21.50;97.00;;;;;;5088510;28;20276;-50
2022/06/23 07:49:08;;;;;;;1.92;1.83;;;21.50;96.80;;;;;;5082090;28;20197;-56
2022/06/23 07:51:37;;;;;;;1.88;1.42;;;21.60;96.70;;;;;;5081548;28;20264;-57
2022/06/23 07:54:06;;;;;;;2.17;2.00;;;21.60;96.70;;;;;;5077624;28;20721;-56
2022/06/23 07:56:39;;;;;;;3.17;2.35;;;21.70;96.90;;;;;;5080707;28;20193;-54
2022/06/23 07:59:10;;;;;;;2.80;2.22;;;21.80;97.30;;;;;;5088514;28;20489;-55
2022/06/23 08:01:43;;;;;;;3.60;2.10;;;21.80;97.40;;;;;;5079352;28;20547;-56
2022/06/23 08:04:18;;;;;;;2.03;1.92;;;21.90;97.50;;;;;;5060184;28;20731;-53
2022/06/23 08:06:47;;;;;;;2.78;2.08;;;21.90;97.60;;;;;;5083029;28;20196;-56
2022/06/23 08:09:29;;;;;;;2.28;2.08;;;22.00;97.80;;;;;;5081985;28;20694;-55
2022/06/23 08:14:50;;;;;;;2.00;1.90;;;22.10;98.00;;;;;;5085071;28;20215;-53
2022/06/23 08:17:18;;;;;;;2.08;1.73;;;22.20;98.10;;;;;;5083562;28;20660;-56
2022/06/23 08:19:52;;;;;;;1.95;1.85;;;22.20;98.10;;;;;;5084794;28;20243;-57
2022/06/23 08:22:23;;;;;;;1.95;1.85;;;22.30;98.00;;;;;;5066058;28;20200;-56
2022/06/23 08:24:55;;;;;;;1.90;1.30;;;22.40;98.30;;;;;;5084020;28;20275;-54
2022/06/23 08:27:28;;;;;;;2.58;1.75;;;22.40;97.90;;;;;;5058501;28;20288;-58
2022/06/23 08:30:01;;;;;;;1.48;1.38;;;22.50;97.80;;;;;;5083195;28;20200;-54
2022/06/23 08:32:30;;;;;;;1.42;1.33;;;22.50;97.70;;;;;;5082807;28;20239;-56
2022/06/23 08:35:03;;;;;;;1.40;1.30;;;22.60;97.60;;;;;;5075725;28;20189;-57
2022/06/23 08:37:38;;;;;;;2.33;1.85;;;22.60;97.50;;;;;;5080039;28;20200;-57
2022/06/23 08:40:20;;;;;;;1.60;1.50;;;22.70;97.40;;;;;;5076778;28;20195;-57
2022/06/23 08:42:53;;;;;;;1.63;1.52;;;22.70;97.30;;;;;;5077728;28;20283;-57
2022/06/23 08:45:28;;;;;;;1.17;1.10;;;22.70;97.20;;;;;;5081454;28;20212;-55
2022/06/23 08:48:03;;;;;;;1.70;1.60;;;22.80;97.10;;;;;;5083201;28;20238;-58
2022/06/23 08:50:35;;;;;;;1.85;1.50;;;22.80;96.80;;;;;;5076426;28;20590;-55
2022/06/23 08:53:07;;;;;;;2.67;1.25;;;22.80;96.80;;;;;;5077977;28;20598;-58
2022/06/23 08:55:42;;;;;;;1.33;1.23;;;22.90;96.70;;;;;;5079405;28;20189;-57
2022/06/23 08:58:19;;;;;;;1.42;1.33;;;23.00;96.60;;;;;;5081469;28;20237;-60
2022/06/23 09:00:56;;;;;;;1.60;1.50;;;23.10;96.50;;;;;;5079685;28;20188;-58
2022/06/23 09:03:33;;;;;;;1.45;1.40;;;23.10;96.20;;;;;;5079488;28;20197;-54
2022/06/23 09:06:08;;;;;;;1.20;1.20;;;23.10;96.00;;;;;;5081427;28;20204;-55
2022/06/23 09:08:43;;;;;;;2.10;1.40;;;23.20;95.80;;;;;;5080328;28;20245;-60
2022/06/23 09:11:18;;;;;;;4.72;1.55;;;23.30;95.60;;;;;;5076629;28;20258;-57
2022/06/23 09:14:01;;;;;;;1.55;1.45;;;23.30;95.30;;;;;;5076592;28;20189;-59
2022/06/23 09:17:02;;;;;;;1.85;1.70;;;23.40;95.20;;;;;;5077466;28;20235;-58
2022/06/23 09:19:40;;;;;;;2.00;1.67;;;23.40;95.00;;;;;;5065978;28;20228;-54
2022/06/23 09:22:28;;;;;;;1.60;1.50;;;23.50;94.80;;;;;;5078432;28;20184;-55
2022/06/23 09:25:14;;;;;;;1.75;1.60;;;23.50;94.70;;;;;;5083485;28;20275;-59
2022/06/23 09:27:58;;;;;;;1.70;1.60;;;23.50;94.50;;;;;;5083438;28;20238;-58
2022/06/23 09:30:38;;;;;;;1.30;1.30;;;23.50;94.40;;;;;;5077526;28;20631;-58
2022/06/23 09:33:17;;;;;;;1.13;1.10;;;23.60;94.40;;;;;;5057283;28;20557;-58
2022/06/23 09:36:11;;;;;;;1.35;1.33;;;23.70;94.30;;;;;;5076754;28;20196;-57
2022/06/23 09:39:01;;;;;;;2.08;1.88;;;23.70;94.10;;;;;;5069703;28;20189;-58
2022/06/23 09:41:43;;;;;;;2.72;2.08;;;23.80;93.70;;;;;;5065037;28;20259;-57
2022/06/23 09:44:24;;;;;;;2.78;2.28;;;23.70;93.30;;;;;;5078631;28;20196;-58
2022/06/23 09:47:32;;;;;;;2.60;2.40;;;23.70;93.10;;;;;;5078924;28;20592;-57
2022/06/23 09:50:13;;;;;;;2.60;2.40;;;23.70;93.10;;;;;;5087245;28;20537;-58
2022/06/23 09:53:17;;;;;;;3.15;2.60;;;23.60;92.80;;;;;;5075838;28;20189;-58
2022/06/23 09:56:07;;;;;;;2.88;2.53;;;23.60;92.70;;;;;;5074463;28;20672;-58
2022/06/23 09:58:47;;;;;;;2.10;2.00;;;23.60;92.50;;;;;;5072260;28;20229;-58
2022/06/23 10:01:30;;;;;;;2.15;1.95;;;23.60;92.90;;;;;;5076329;28;20216;-58
2022/06/23 10:04:10;;;;;;;2.65;2.00;;;23.70;92.50;;;;;;5079039;28;20219;-57
2022/06/23 10:06:56;;;;;;;1.90;1.80;;;23.70;92.40;;;;;;5082536;28;20232;-58
2022/06/23 10:09:36;;;;;;;1.80;1.70;;;23.80;92.40;;;;;;5077708;28;20215;-59
2022/06/23 10:12:28;;;;;;;1.20;1.20;;;23.80;92.40;;;;;;5076789;28;20663;-59
2022/06/23 10:15:11;;;;;;;1.40;1.30;;;23.90;92.40;;;;;;5072119;28;20208;-58
2022/06/23 10:18:09;;;;;;;1.60;1.50;;;24.00;92.30;;;;;;5080464;28;20184;-58
2022/06/23 10:20:53;;;;;;;1.15;1.15;;;24.10;92.20;;;;;;5065387;28;20599;-57
2022/06/23 10:23:39;;;;;;;1.50;1.40;;;24.20;92.10;;;;;;5075219;28;20680;-58
2022/06/23 10:26:28;;;;;;;1.77;1.67;;;24.20;91.80;;;;;;5074930;28;20230;-58
2022/06/23 10:29:20;;;;;;;1.40;1.30;;;24.30;91.60;;;;;;5083078;28;20199;-58
2022/06/23 10:32:33;;;;;;;1.30;1.30;;;24.30;91.60;;;;;;5056447;28;20209;-58
2022/06/23 10:35:14;;;;;;;1.92;1.70;;;24.30;91.50;;;;;;5006493;28;20261;-58
2022/06/23 10:38:10;;;;;;;2.58;1.98;;;24.40;91.10;;;;;;5078425;28;20200;-58
2022/06/23 10:40:53;;;;;;;1.50;1.40;;;24.40;90.70;;;;;;5081956;28;20197;-58
2022/06/23 10:43:43;;;;;;;1.60;1.50;;;24.40;90.80;;;;;;5083573;28;20597;-59
2022/06/23 10:46:14;;;;;;;1.95;1.50;;;24.40;90.70;;;;;;5076877;28;20230;-58
2022/06/23 10:49:08;;;;;;;1.58;1.52;;;24.40;90.50;;;;;;5084055;28;20194;-59
2022/06/23 10:52:00;;;;;;;1.50;1.40;;;24.40;90.50;;;;;;5080028;28;20239;-59
2022/06/23 10:54:52;;;;;;;1.92;1.60;;;24.50;90.30;;;;;;5078852;28;20205;-59
2022/06/23 10:57:36;;;;;;;3.08;1.55;;;24.50;90.20;;;;;;5078540;28;20795;-59
2022/06/23 11:00:10;;;;;;;1.60;1.50;;;24.50;90.20;;;;;;5083613;28;20204;-58
2022/06/23 11:03:10;;;;;;;1.85;1.45;;;24.50;90.10;;;;;;5076307;28;20195;-57
2022/06/23 11:05:51;;;;;;;2.00;1.90;;;24.50;90.00;;;;;;5079596;28;20801;-58
2022/06/23 11:08:40;;;;;;;1.95;1.80;;;24.50;89.30;;;;;;5080947;28;20204;-59
2022/06/23 11:11:24;;;;;;;1.80;1.70;;;24.50;88.90;;;;;;5072986;28;20200;-59
2022/06/23 11:14:00;;;;;;;1.38;1.38;;;24.50;89.00;;;;;;5078833;28;20724;-59
2022/06/23 11:16:35;;;;;;;2.17;1.85;;;24.50;89.20;;;;;;5083553;28;20226;-58
2022/06/23 11:19:21;;;;;;;2.45;2.20;;;24.60;89.30;;;;;;5080780;28;20231;-58
2022/06/23 11:22:03;;;;;;;2.17;2.00;;;24.70;89.00;;;;;;5074407;28;20625;-59
2022/06/23 11:24:42;;;;;;;4.72;2.00;;;24.70;88.80;;;;;;5078570;28;20242;-58
2022/06/23 11:27:22;;;;;;;1.40;1.40;;;24.70;88.90;;;;;;5064052;28;20795;-58
2022/06/23 11:30:13;;;;;;;1.50;1.40;;;24.70;88.90;;;;;;5082800;28;20700;-58
2022/06/23 11:32:59;;;;;;;2.13;1.63;;;24.70;88.80;;;;;;5064690;28;20298;-58
2022/06/23 11:35:41;;;;;;;1.70;1.60;;;24.80;88.90;;;;;;5086864;28;20537;-57
2022/06/23 11:38:32;;;;;;;2.05;1.50;;;24.80;88.70;;;;;;5073350;28;20723;-58
2022/06/23 11:41:15;;;;;;;2.55;1.80;;;24.80;88.60;;;;;;5079083;28;20770;-57
2022/06/23 11:44:00;;;;;;;1.98;1.70;;;24.80;88.30;;;;;;5071582;28;20561;-58
2022/06/23 11:46:34;;;;;;;1.70;1.60;;;24.80;88.10;;;;;;5053500;28;20244;-60
2022/06/23 11:49:29;;;;;;;1.98;1.85;;;24.80;88.10;;;;;;5082870;28;20250;-58
2022/06/23 11:52:19;;;;;;;1.88;1.73;;;24.80;87.70;;;;;;5074698;28;20246;-58
2022/06/23 11:55:01;;;;;;;1.80;1.70;;;24.80;87.50;;;;;;5075578;28;20197;-59
2022/06/23 11:57:43;;;;;;;2.00;1.90;;;24.80;87.50;;;;;;5074209;28;20284;-58
2022/06/23 12:00:14;;;;;;;1.80;1.70;;;24.80;87.30;;;;;;5074725;28;20192;-58
2022/06/23 12:02:55;;;;;;;1.50;1.40;;;24.80;87.20;;;;;;5063956;28;20201;-58
2022/06/23 12:05:32;;;;;;;2.65;1.83;;;24.90;87.30;;;;;;5085544;28;20211;-58
2022/06/23 12:08:11;;;;;;;1.75;1.63;;;24.90;87.00;;;;;;5086134;28;20193;-58
2022/06/23 12:10:38;;;;;;;1.85;1.75;;;24.90;86.90;;;;;;5079135;28;20204;-58
2022/06/23 12:13:06;;;;;;;4.88;1.52;;;24.90;86.90;;;;;;5089202;28;20204;-58
2022/06/23 12:15:40;;;;;;;1.73;1.63;;;24.90;86.70;;;;;;5083494;28;20203;-59
2022/06/23 12:18:13;;;;;;;2.10;1.90;;;24.90;86.50;;;;;;5090128;28;20553;-59
2022/06/23 12:20:48;;;;;;;4.10;1.80;;;24.90;86.30;;;;;;5084410;28;20301;-59
2022/06/23 12:23:23;;;;;;;2.03;1.83;;;25.00;86.30;;;;;;5080986;28;20258;-59
2022/06/23 12:26:01;;;;;;;3.30;1.95;;;25.00;86.10;;;;;;5074030;28;20269;-58
2022/06/23 12:28:37;;;;;;;2.45;1.58;;;25.00;86.10;;;;;;5080504;28;20200;-58
2022/06/23 12:31:21;;;;;;;1.60;1.50;;;25.00;86.00;;;;;;5087242;28;20203;-58
2022/06/23 12:33:56;;;;;;;2.05;1.90;;;25.00;86.20;;;;;;5070597;28;20196;-59
2022/06/23 12:36:31;;;;;;;1.90;1.50;;;25.00;86.20;;;;;;5079430;28;20242;-58
2022/06/23 12:39:08;;;;;;;1.92;1.77;;;25.00;86.20;;;;;;5089330;28;20222;-58
2022/06/23 12:41:41;;;;;;;1.83;1.65;;;25.00;86.20;;;;;;5062592;28;20208;-58
2022/06/23 12:44:18;;;;;;;1.55;1.45;;;25.00;86.30;;;;;;5087650;28;20533;-59
2022/06/23 12:46:56;;;;;;;1.42;1.42;;;25.00;86.10;;;;;;5079980;28;20239;-59
2022/06/23 12:49:38;;;;;;;1.90;1.80;;;25.00;86.10;;;;;;5071727;28;20253;-58
2022/06/23 12:52:20;;;;;;;2.00;1.65;;;25.00;86.20;;;;;;5083065;28;20188;-58
2022/06/23 12:55:12;;;;;;;2.08;1.92;;;25.00;86.40;;;;;;5083823;28;20192;-58
2022/06/23 12:58:16;;;;;;;1.95;1.85;;;25.00;86.50;;;;;;5080469;28;20258;-58
2022/06/23 13:00:54;;;;;;;2.33;2.20;;;24.90;86.30;;;;;;5068525;28;20219;-59
2022/06/23 13:03:29;;;;;;;2.20;1.98;;;24.80;86.60;;;;;;5083810;28;20197;-58
2022/06/23 13:06:10;;;;;;;1.90;1.80;;;24.80;86.70;;;;;;5079176;28;20291;-60
2022/06/23 13:08:43;;;;;;;2.25;2.05;;;24.70;87.00;;;;;;5071742;28;20291;-59
2022/06/23 13:11:17;;;;;;;1.70;1.60;;;24.70;87.60;;;;;;5076030;28;20273;-59
2022/06/23 13:13:48;;;;;;;1.88;1.60;;;24.70;88.00;;;;;;5076980;28;20200;-59
2022/06/23 13:16:21;;;;;;;1.80;1.70;;;24.70;88.30;;;;;;5085478;28;20261;-59
2022/06/23 13:18:59;;;;;;;1.70;1.60;;;24.70;88.60;;;;;;5084854;28;20688;-57
2022/06/23 13:21:30;;;;;;;1.83;1.73;;;24.70;88.70;;;;;;5082451;28;20208;-58
2022/06/23 13:24:02;;;;;;;1.80;1.70;;;24.70;88.90;;;;;;5080029;28;20209;-58
2022/06/23 13:26:33;;;;;;;3.53;1.30;;;24.70;88.90;;;;;;5074234;28;20722;-58
2022/06/23 13:29:06;;;;;;;1.40;1.30;;;24.70;88.70;;;;;;5083360;28;20188;-57
2022/06/23 13:31:40;;;;;;;1.50;1.40;;;24.80;88.80;;;;;;5080386;28;21032;-57
2022/06/23 13:34:17;;;;;;;1.60;1.50;;;24.80;88.70;;;;;;5082640;28;20196;-59
2022/06/23 13:36:48;;;;;;;2.55;1.88;;;24.80;89.00;;;;;;5070995;28;20193;-59
2022/06/23 13:39:24;;;;;;;2.08;1.70;;;24.80;89.30;;;;;;5077368;28;20552;-58
2022/06/23 13:41:56;;;;;;;2.65;1.55;;;24.70;89.20;;;;;;5071887;28;20200;-58
2022/06/23 13:44:31;;;;;;;1.48;1.40;;;24.70;89.20;;;;;;5078063;28;20680;-58